sensor_id;sensor_type;location;lat;lon;timestamp;P1;durP1;ratioP1;P2;durP2;ratioP2
59950;SDS011;45812;53.540;9.774;2023-12-28T00:00:37;3.88;;;2.03;;
59950;SDS011;45812;53.540;9.774;2023-12-28T00:03:02;2.55;;;1.70;;
59950;SDS011;45812;53.540;9.774;2023-12-28T00:05:27;2.70;;;2.00;;
59950;SDS011;45812;53.540;9.774;2023-12-28T00:07:53;4.57;;;1.55;;
59950;SDS011;45812;53.540;9.774;2023-12-28T00:10:23;2.70;;;2.10;;
59950;SDS011;45812;53.540;9.774;2023-12-28T00:12:49;3.67;;;1.63;;
59950;SDS011;45812;53.540;9.774;2023-12-28T00:15:14;2.88;;;1.75;;
59950;SDS011;45812;53.540;9.774;2023-12-28T00:17:39;3.67;;;1.77;;
59950;SDS011;45812;53.540;9.774;2023-12-28T00:20:05;6.57;;;2.22;;
59950;SDS011;45812;53.540;9.774;2023-12-28T00:22:30;4.05;;;2.35;;
59950;SDS011;45812;53.540;9.774;2023-12-28T00:24:56;2.47;;;2.28;;
59950;SDS011;45812;53.540;9.774;2023-12-28T00:27:21;2.10;;;1.90;;
59950;SDS011;45812;53.540;9.774;2023-12-28T00:29:46;3.45;;;2.05;;
59950;SDS011;45812;53.540;9.774;2023-12-28T00:32:11;2.97;;;1.95;;
59950;SDS011;45812;53.540;9.774;2023-12-28T00:34:37;7.03;;;1.80;;
59950;SDS011;45812;53.540;9.774;2023-12-28T00:37:02;2.63;;;2.00;;
59950;SDS011;45812;53.540;9.774;2023-12-28T00:39:27;4.18;;;2.05;;
59950;SDS011;45812;53.540;9.774;2023-12-28T00:41:53;1.63;;;1.40;;
59950;SDS011;45812;53.540;9.774;2023-12-28T00:44:18;4.68;;;1.83;;
59950;SDS011;45812;53.540;9.774;2023-12-28T00:46:43;3.15;;;2.00;;
59950;SDS011;45812;53.540;9.774;2023-12-28T00:49:08;2.28;;;2.08;;
59950;SDS011;45812;53.540;9.774;2023-12-28T00:51:34;4.28;;;2.20;;
59950;SDS011;45812;53.540;9.774;2023-12-28T00:53:59;3.08;;;2.10;;
59950;SDS011;45812;53.540;9.774;2023-12-28T00:56:24;7.22;;;2.17;;
59950;SDS011;45812;53.540;9.774;2023-12-28T00:58:49;5.75;;;2.45;;
59950;SDS011;45812;53.540;9.774;2023-12-28T01:01:15;7.78;;;2.22;;
59950;SDS011;45812;53.540;9.774;2023-12-28T01:03:40;4.15;;;2.40;;
59950;SDS011;45812;53.540;9.774;2023-12-28T01:06:05;8.60;;;2.30;;
59950;SDS011;45812;53.540;9.774;2023-12-28T01:08:31;4.78;;;2.50;;
59950;SDS011;45812;53.540;9.774;2023-12-28T01:10:58;3.75;;;2.30;;
59950;SDS011;45812;53.540;9.774;2023-12-28T01:13:24;7.55;;;2.53;;
59950;SDS011;45812;53.540;9.774;2023-12-28T01:15:49;2.75;;;2.03;;
59950;SDS011;45812;53.540;9.774;2023-12-28T01:18:14;4.97;;;2.20;;
59950;SDS011;45812;53.540;9.774;2023-12-28T01:20:40;8.02;;;2.83;;
59950;SDS011;45812;53.540;9.774;2023-12-28T01:23:05;4.20;;;2.03;;
59950;SDS011;45812;53.540;9.774;2023-12-28T01:25:30;5.95;;;2.22;;
59950;SDS011;45812;53.540;9.774;2023-12-28T01:27:55;3.28;;;2.63;;
59950;SDS011;45812;53.540;9.774;2023-12-28T01:30:21;4.60;;;2.25;;
59950;SDS011;45812;53.540;9.774;2023-12-28T01:32:46;5.68;;;4.20;;
59950;SDS011;45812;53.540;9.774;2023-12-28T01:35:11;5.35;;;2.80;;
59950;SDS011;45812;53.540;9.774;2023-12-28T01:37:36;5.47;;;2.30;;
59950;SDS011;45812;53.540;9.774;2023-12-28T01:40:02;6.55;;;2.55;;
59950;SDS011;45812;53.540;9.774;2023-12-28T01:42:27;6.57;;;2.17;;
59950;SDS011;45812;53.540;9.774;2023-12-28T01:44:55;4.18;;;2.15;;
59950;SDS011;45812;53.540;9.774;2023-12-28T01:47:20;4.55;;;2.75;;
59950;SDS011;45812;53.540;9.774;2023-12-28T01:49:45;4.15;;;2.65;;
59950;SDS011;45812;53.540;9.774;2023-12-28T01:52:11;4.75;;;2.50;;
59950;SDS011;45812;53.540;9.774;2023-12-28T01:54:36;4.05;;;2.17;;
59950;SDS011;45812;53.540;9.774;2023-12-28T01:57:03;5.28;;;2.55;;
59950;SDS011;45812;53.540;9.774;2023-12-28T01:59:28;2.63;;;2.33;;
59950;SDS011;45812;53.540;9.774;2023-12-28T02:01:54;7.72;;;2.67;;
59950;SDS011;45812;53.540;9.774;2023-12-28T02:04:20;2.63;;;2.25;;
59950;SDS011;45812;53.540;9.774;2023-12-28T02:06:51;3.67;;;2.50;;
59950;SDS011;45812;53.540;9.774;2023-12-28T02:09:21;2.58;;;2.00;;
59950;SDS011;45812;53.540;9.774;2023-12-28T02:11:46;4.35;;;2.38;;
59950;SDS011;45812;53.540;9.774;2023-12-28T02:14:11;2.92;;;2.60;;
59950;SDS011;45812;53.540;9.774;2023-12-28T02:16:38;7.70;;;2.55;;
59950;SDS011;45812;53.540;9.774;2023-12-28T02:19:14;5.20;;;2.63;;
59950;SDS011;45812;53.540;9.774;2023-12-28T02:21:56;4.93;;;2.83;;
59950;SDS011;45812;53.540;9.774;2023-12-28T02:24:24;4.03;;;2.75;;
59950;SDS011;45812;53.540;9.774;2023-12-28T02:26:49;7.47;;;2.67;;
59950;SDS011;45812;53.540;9.774;2023-12-28T02:29:14;3.72;;;2.65;;
59950;SDS011;45812;53.540;9.774;2023-12-28T02:31:42;3.75;;;2.42;;
59950;SDS011;45812;53.540;9.774;2023-12-28T02:34:16;4.65;;;2.70;;
59950;SDS011;45812;53.540;9.774;2023-12-28T02:39:14;3.50;;;2.40;;
59950;SDS011;45812;53.540;9.774;2023-12-28T02:41:42;5.13;;;3.28;;
59950;SDS011;45812;53.540;9.774;2023-12-28T02:44:08;3.78;;;2.53;;
59950;SDS011;45812;53.540;9.774;2023-12-28T02:46:33;6.90;;;3.00;;
59950;SDS011;45812;53.540;9.774;2023-12-28T02:48:59;3.22;;;2.70;;
59950;SDS011;45812;53.540;9.774;2023-12-28T02:51:24;4.78;;;2.72;;
59950;SDS011;45812;53.540;9.774;2023-12-28T02:53:50;4.25;;;2.78;;
59950;SDS011;45812;53.540;9.774;2023-12-28T02:56:15;4.30;;;2.35;;
59950;SDS011;45812;53.540;9.774;2023-12-28T02:58:40;3.90;;;2.85;;
59950;SDS011;45812;53.540;9.774;2023-12-28T03:01:05;6.38;;;3.20;;
59950;SDS011;45812;53.540;9.774;2023-12-28T03:03:31;4.30;;;2.63;;
59950;SDS011;45812;53.540;9.774;2023-12-28T03:05:56;5.03;;;2.78;;
59950;SDS011;45812;53.540;9.774;2023-12-28T03:08:21;6.30;;;2.70;;
59950;SDS011;45812;53.540;9.774;2023-12-28T03:10:46;5.53;;;2.80;;
59950;SDS011;45812;53.540;9.774;2023-12-28T03:13:12;5.68;;;2.78;;
59950;SDS011;45812;53.540;9.774;2023-12-28T03:15:37;5.22;;;2.78;;
59950;SDS011;45812;53.540;9.774;2023-12-28T03:18:02;6.05;;;2.72;;
59950;SDS011;45812;53.540;9.774;2023-12-28T03:20:27;7.88;;;2.65;;
59950;SDS011;45812;53.540;9.774;2023-12-28T03:22:53;6.60;;;2.55;;
59950;SDS011;45812;53.540;9.774;2023-12-28T03:25:18;5.18;;;3.10;;
59950;SDS011;45812;53.540;9.774;2023-12-28T03:27:43;4.95;;;2.80;;
59950;SDS011;45812;53.540;9.774;2023-12-28T03:30:09;5.85;;;2.88;;
59950;SDS011;45812;53.540;9.774;2023-12-28T03:32:34;8.00;;;2.88;;
59950;SDS011;45812;53.540;9.774;2023-12-28T03:35:00;8.50;;;3.15;;
59950;SDS011;45812;53.540;9.774;2023-12-28T03:37:25;7.35;;;3.00;;
59950;SDS011;45812;53.540;9.774;2023-12-28T03:39:51;5.80;;;3.35;;
59950;SDS011;45812;53.540;9.774;2023-12-28T03:42:16;6.65;;;2.58;;
59950;SDS011;45812;53.540;9.774;2023-12-28T03:44:41;7.95;;;3.80;;
59950;SDS011;45812;53.540;9.774;2023-12-28T03:47:06;4.93;;;2.70;;
59950;SDS011;45812;53.540;9.774;2023-12-28T03:49:32;3.75;;;2.92;;
59950;SDS011;45812;53.540;9.774;2023-12-28T03:51:57;5.10;;;3.47;;
59950;SDS011;45812;53.540;9.774;2023-12-28T03:54:22;5.57;;;2.55;;
59950;SDS011;45812;53.540;9.774;2023-12-28T03:56:47;8.35;;;2.53;;
59950;SDS011;45812;53.540;9.774;2023-12-28T03:59:13;7.40;;;2.75;;
59950;SDS011;45812;53.540;9.774;2023-12-28T04:01:40;4.38;;;2.70;;
59950;SDS011;45812;53.540;9.774;2023-12-28T04:04:05;3.22;;;2.25;;
59950;SDS011;45812;53.540;9.774;2023-12-28T04:06:30;7.10;;;2.42;;
59950;SDS011;45812;53.540;9.774;2023-12-28T04:08:56;6.60;;;3.33;;
59950;SDS011;45812;53.540;9.774;2023-12-28T04:11:21;4.25;;;2.85;;
59950;SDS011;45812;53.540;9.774;2023-12-28T04:13:46;7.30;;;2.47;;
59950;SDS011;45812;53.540;9.774;2023-12-28T04:16:12;4.60;;;3.13;;
59950;SDS011;45812;53.540;9.774;2023-12-28T04:18:38;4.53;;;2.78;;
59950;SDS011;45812;53.540;9.774;2023-12-28T04:21:03;5.90;;;2.88;;
59950;SDS011;45812;53.540;9.774;2023-12-28T04:23:29;5.93;;;2.40;;
59950;SDS011;45812;53.540;9.774;2023-12-28T04:25:54;3.25;;;2.60;;
59950;SDS011;45812;53.540;9.774;2023-12-28T04:28:19;7.40;;;3.00;;
59950;SDS011;45812;53.540;9.774;2023-12-28T04:30:44;4.88;;;2.58;;
59950;SDS011;45812;53.540;9.774;2023-12-28T04:33:10;3.38;;;2.80;;
59950;SDS011;45812;53.540;9.774;2023-12-28T04:35:35;6.43;;;3.28;;
59950;SDS011;45812;53.540;9.774;2023-12-28T04:38:00;4.30;;;2.60;;
59950;SDS011;45812;53.540;9.774;2023-12-28T04:40:25;6.60;;;3.00;;
59950;SDS011;45812;53.540;9.774;2023-12-28T04:42:50;3.58;;;2.53;;
59950;SDS011;45812;53.540;9.774;2023-12-28T04:45:16;2.55;;;2.05;;
59950;SDS011;45812;53.540;9.774;2023-12-28T04:47:41;5.55;;;2.60;;
59950;SDS011;45812;53.540;9.774;2023-12-28T04:50:06;3.05;;;2.20;;
59950;SDS011;45812;53.540;9.774;2023-12-28T04:52:32;2.67;;;2.40;;
59950;SDS011;45812;53.540;9.774;2023-12-28T04:54:57;7.22;;;3.47;;
59950;SDS011;45812;53.540;9.774;2023-12-28T04:57:23;6.00;;;2.90;;
59950;SDS011;45812;53.540;9.774;2023-12-28T04:59:52;5.78;;;3.08;;
59950;SDS011;45812;53.540;9.774;2023-12-28T05:02:18;4.72;;;2.47;;
59950;SDS011;45812;53.540;9.774;2023-12-28T05:04:43;9.00;;;3.10;;
59950;SDS011;45812;53.540;9.774;2023-12-28T05:07:08;4.85;;;2.78;;
59950;SDS011;45812;53.540;9.774;2023-12-28T05:09:34;4.68;;;2.38;;
59950;SDS011;45812;53.540;9.774;2023-12-28T05:11:59;9.40;;;3.25;;
59950;SDS011;45812;53.540;9.774;2023-12-28T05:14:24;5.60;;;2.95;;
59950;SDS011;45812;53.540;9.774;2023-12-28T05:16:50;6.53;;;2.67;;
59950;SDS011;45812;53.540;9.774;2023-12-28T05:19:15;10.15;;;3.10;;
59950;SDS011;45812;53.540;9.774;2023-12-28T05:21:41;5.53;;;2.90;;
59950;SDS011;45812;53.540;9.774;2023-12-28T05:24:06;3.30;;;2.65;;
59950;SDS011;45812;53.540;9.774;2023-12-28T05:26:32;3.67;;;2.78;;
59950;SDS011;45812;53.540;9.774;2023-12-28T05:28:57;5.82;;;2.75;;
59950;SDS011;45812;53.540;9.774;2023-12-28T05:31:22;7.38;;;3.03;;
59950;SDS011;45812;53.540;9.774;2023-12-28T05:33:47;7.95;;;2.90;;
59950;SDS011;45812;53.540;9.774;2023-12-28T05:36:13;6.50;;;2.85;;
59950;SDS011;45812;53.540;9.774;2023-12-28T05:38:38;2.90;;;2.13;;
59950;SDS011;45812;53.540;9.774;2023-12-28T05:41:03;6.88;;;3.08;;
59950;SDS011;45812;53.540;9.774;2023-12-28T05:43:28;4.65;;;2.53;;
59950;SDS011;45812;53.540;9.774;2023-12-28T05:45:54;2.65;;;2.42;;
59950;SDS011;45812;53.540;9.774;2023-12-28T05:48:19;6.40;;;3.00;;
59950;SDS011;45812;53.540;9.774;2023-12-28T05:50:44;3.13;;;2.83;;
59950;SDS011;45812;53.540;9.774;2023-12-28T05:53:09;5.30;;;2.42;;
59950;SDS011;45812;53.540;9.774;2023-12-28T05:55:42;4.13;;;2.55;;
59950;SDS011;45812;53.540;9.774;2023-12-28T05:58:08;5.63;;;2.75;;
59950;SDS011;45812;53.540;9.774;2023-12-28T06:00:33;7.28;;;2.92;;
59950;SDS011;45812;53.540;9.774;2023-12-28T06:02:58;6.72;;;2.80;;
59950;SDS011;45812;53.540;9.774;2023-12-28T06:05:26;3.40;;;2.15;;
59950;SDS011;45812;53.540;9.774;2023-12-28T06:07:51;6.05;;;3.28;;
59950;SDS011;45812;53.540;9.774;2023-12-28T06:10:17;3.85;;;2.40;;
59950;SDS011;45812;53.540;9.774;2023-12-28T06:12:42;5.57;;;2.60;;
59950;SDS011;45812;53.540;9.774;2023-12-28T06:15:07;6.70;;;3.00;;
59950;SDS011;45812;53.540;9.774;2023-12-28T06:17:33;5.78;;;2.80;;
59950;SDS011;45812;53.540;9.774;2023-12-28T06:19:58;6.50;;;2.80;;
59950;SDS011;45812;53.540;9.774;2023-12-28T06:22:23;7.18;;;2.75;;
59950;SDS011;45812;53.540;9.774;2023-12-28T06:24:52;7.95;;;3.20;;
59950;SDS011;45812;53.540;9.774;2023-12-28T06:27:17;7.22;;;2.88;;
59950;SDS011;45812;53.540;9.774;2023-12-28T06:29:42;3.55;;;2.15;;
59950;SDS011;45812;53.540;9.774;2023-12-28T06:32:08;2.45;;;2.25;;
59950;SDS011;45812;53.540;9.774;2023-12-28T06:34:33;17.58;;;3.38;;
59950;SDS011;45812;53.540;9.774;2023-12-28T06:36:58;7.55;;;2.63;;
59950;SDS011;45812;53.540;9.774;2023-12-28T06:39:26;4.78;;;2.65;;
59950;SDS011;45812;53.540;9.774;2023-12-28T06:41:51;3.03;;;2.00;;
59950;SDS011;45812;53.540;9.774;2023-12-28T06:44:16;8.60;;;3.42;;
59950;SDS011;45812;53.540;9.774;2023-12-28T06:46:42;4.90;;;2.63;;
59950;SDS011;45812;53.540;9.774;2023-12-28T06:49:07;3.83;;;2.50;;
59950;SDS011;45812;53.540;9.774;2023-12-28T06:51:32;5.63;;;2.47;;
59950;SDS011;45812;53.540;9.774;2023-12-28T06:53:58;4.38;;;2.90;;
59950;SDS011;45812;53.540;9.774;2023-12-28T06:56:24;2.60;;;1.85;;
59950;SDS011;45812;53.540;9.774;2023-12-28T06:58:49;9.05;;;3.60;;
59950;SDS011;45812;53.540;9.774;2023-12-28T07:01:14;9.05;;;2.63;;
59950;SDS011;45812;53.540;9.774;2023-12-28T07:03:40;5.75;;;3.00;;
59950;SDS011;45812;53.540;9.774;2023-12-28T07:06:05;6.68;;;2.47;;
59950;SDS011;45812;53.540;9.774;2023-12-28T07:08:30;3.88;;;2.40;;
59950;SDS011;45812;53.540;9.774;2023-12-28T07:10:55;3.65;;;2.47;;
59950;SDS011;45812;53.540;9.774;2023-12-28T07:13:22;6.88;;;2.65;;
59950;SDS011;45812;53.540;9.774;2023-12-28T07:15:47;5.43;;;2.75;;
59950;SDS011;45812;53.540;9.774;2023-12-28T07:18:12;6.75;;;2.95;;
59950;SDS011;45812;53.540;9.774;2023-12-28T07:20:38;6.95;;;2.10;;
59950;SDS011;45812;53.540;9.774;2023-12-28T07:23:03;7.13;;;2.65;;
59950;SDS011;45812;53.540;9.774;2023-12-28T07:25:28;2.92;;;2.63;;
59950;SDS011;45812;53.540;9.774;2023-12-28T07:27:53;3.10;;;1.95;;
59950;SDS011;45812;53.540;9.774;2023-12-28T07:30:19;4.50;;;2.35;;
59950;SDS011;45812;53.540;9.774;2023-12-28T07:32:44;10.40;;;2.65;;
59950;SDS011;45812;53.540;9.774;2023-12-28T07:35:10;5.35;;;2.85;;
59950;SDS011;45812;53.540;9.774;2023-12-28T07:37:36;9.07;;;2.95;;
59950;SDS011;45812;53.540;9.774;2023-12-28T07:40:01;4.85;;;1.88;;
59950;SDS011;45812;53.540;9.774;2023-12-28T07:42:28;7.68;;;2.50;;
59950;SDS011;45812;53.540;9.774;2023-12-28T07:44:53;8.20;;;2.58;;
59950;SDS011;45812;53.540;9.774;2023-12-28T07:47:19;6.38;;;2.72;;
59950;SDS011;45812;53.540;9.774;2023-12-28T07:49:44;4.65;;;1.77;;
59950;SDS011;45812;53.540;9.774;2023-12-28T07:52:09;5.07;;;2.22;;
59950;SDS011;45812;53.540;9.774;2023-12-28T07:54:34;2.78;;;1.73;;
59950;SDS011;45812;53.540;9.774;2023-12-28T07:56:59;2.08;;;1.73;;
59950;SDS011;45812;53.540;9.774;2023-12-28T07:59:25;7.13;;;2.78;;
59950;SDS011;45812;53.540;9.774;2023-12-28T08:01:50;8.23;;;2.88;;
59950;SDS011;45812;53.540;9.774;2023-12-28T08:04:15;3.92;;;2.08;;
59950;SDS011;45812;53.540;9.774;2023-12-28T08:06:41;7.00;;;2.67;;
59950;SDS011;45812;53.540;9.774;2023-12-28T08:09:06;10.45;;;3.67;;
59950;SDS011;45812;53.540;9.774;2023-12-28T08:11:31;8.20;;;2.80;;
59950;SDS011;45812;53.540;9.774;2023-12-28T08:13:56;6.05;;;2.65;;
59950;SDS011;45812;53.540;9.774;2023-12-28T08:16:22;9.07;;;2.65;;
59950;SDS011;45812;53.540;9.774;2023-12-28T08:18:47;8.23;;;2.85;;
59950;SDS011;45812;53.540;9.774;2023-12-28T08:21:12;9.00;;;2.33;;
59950;SDS011;45812;53.540;9.774;2023-12-28T08:23:37;5.85;;;2.28;;
59950;SDS011;45812;53.540;9.774;2023-12-28T08:26:03;9.27;;;2.50;;
59950;SDS011;45812;53.540;9.774;2023-12-28T08:28:28;5.60;;;1.88;;
59950;SDS011;45812;53.540;9.774;2023-12-28T08:30:55;2.55;;;1.75;;
59950;SDS011;45812;53.540;9.774;2023-12-28T08:33:21;6.50;;;2.00;;
59950;SDS011;45812;53.540;9.774;2023-12-28T08:35:46;8.07;;;2.28;;
59950;SDS011;45812;53.540;9.774;2023-12-28T08:38:11;4.43;;;1.90;;
59950;SDS011;45812;53.540;9.774;2023-12-28T08:40:37;3.60;;;1.55;;
59950;SDS011;45812;53.540;9.774;2023-12-28T08:43:02;7.53;;;1.77;;
59950;SDS011;45812;53.540;9.774;2023-12-28T08:45:27;4.93;;;2.13;;
59950;SDS011;45812;53.540;9.774;2023-12-28T08:47:53;9.63;;;3.08;;
59950;SDS011;45812;53.540;9.774;2023-12-28T08:50:18;4.25;;;2.17;;
59950;SDS011;45812;53.540;9.774;2023-12-28T08:52:43;11.65;;;3.25;;
59950;SDS011;45812;53.540;9.774;2023-12-28T08:55:09;11.10;;;1.92;;
59950;SDS011;45812;53.540;9.774;2023-12-28T08:57:34;7.70;;;2.00;;
59950;SDS011;45812;53.540;9.774;2023-12-28T08:59:59;6.13;;;2.08;;
59950;SDS011;45812;53.540;9.774;2023-12-28T09:02:27;6.07;;;2.00;;
59950;SDS011;45812;53.540;9.774;2023-12-28T09:04:52;12.45;;;2.30;;
59950;SDS011;45812;53.540;9.774;2023-12-28T09:07:18;5.63;;;2.40;;
59950;SDS011;45812;53.540;9.774;2023-12-28T09:09:44;6.13;;;2.30;;
59950;SDS011;45812;53.540;9.774;2023-12-28T09:12:09;10.32;;;2.13;;
59950;SDS011;45812;53.540;9.774;2023-12-28T09:14:35;7.25;;;1.83;;
59950;SDS011;45812;53.540;9.774;2023-12-28T09:17:01;5.68;;;2.20;;
59950;SDS011;45812;53.540;9.774;2023-12-28T09:19:26;9.52;;;2.75;;
59950;SDS011;45812;53.540;9.774;2023-12-28T09:21:51;6.82;;;1.92;;
59950;SDS011;45812;53.540;9.774;2023-12-28T09:24:16;4.50;;;1.65;;
59950;SDS011;45812;53.540;9.774;2023-12-28T09:26:43;6.97;;;2.38;;
59950;SDS011;45812;53.540;9.774;2023-12-28T09:29:09;6.88;;;1.90;;
59950;SDS011;45812;53.540;9.774;2023-12-28T09:31:34;8.15;;;2.33;;
59950;SDS011;45812;53.540;9.774;2023-12-28T09:33:59;7.95;;;3.05;;
59950;SDS011;45812;53.540;9.774;2023-12-28T09:36:24;5.55;;;1.70;;
59950;SDS011;45812;53.540;9.774;2023-12-28T09:38:50;10.90;;;2.22;;
59950;SDS011;45812;53.540;9.774;2023-12-28T09:41:16;6.95;;;2.13;;
59950;SDS011;45812;53.540;9.774;2023-12-28T09:43:50;6.18;;;1.98;;
59950;SDS011;45812;53.540;9.774;2023-12-28T09:46:19;5.38;;;2.20;;
59950;SDS011;45812;53.540;9.774;2023-12-28T09:48:45;8.32;;;2.50;;
59950;SDS011;45812;53.540;9.774;2023-12-28T09:51:11;4.68;;;1.65;;
59950;SDS011;45812;53.540;9.774;2023-12-28T09:53:36;12.77;;;2.33;;
59950;SDS011;45812;53.540;9.774;2023-12-28T09:56:02;9.95;;;2.30;;
59950;SDS011;45812;53.540;9.774;2023-12-28T09:58:27;8.57;;;2.20;;
59950;SDS011;45812;53.540;9.774;2023-12-28T10:00:54;12.68;;;2.40;;
59950;SDS011;45812;53.540;9.774;2023-12-28T10:03:20;10.13;;;1.98;;
59950;SDS011;45812;53.540;9.774;2023-12-28T10:05:45;9.38;;;2.63;;
59950;SDS011;45812;53.540;9.774;2023-12-28T10:08:11;13.82;;;3.00;;
59950;SDS011;45812;53.540;9.774;2023-12-28T10:10:41;9.27;;;1.92;;
59950;SDS011;45812;53.540;9.774;2023-12-28T10:13:07;3.70;;;1.48;;
59950;SDS011;45812;53.540;9.774;2023-12-28T10:15:33;12.63;;;2.22;;
59950;SDS011;45812;53.540;9.774;2023-12-28T10:17:58;10.32;;;2.60;;
59950;SDS011;45812;53.540;9.774;2023-12-28T10:20:27;5.93;;;2.15;;
59950;SDS011;45812;53.540;9.774;2023-12-28T10:22:52;7.10;;;2.03;;
59950;SDS011;45812;53.540;9.774;2023-12-28T10:25:18;9.15;;;2.40;;
59950;SDS011;45812;53.540;9.774;2023-12-28T10:27:43;9.65;;;2.60;;
59950;SDS011;45812;53.540;9.774;2023-12-28T10:30:09;13.88;;;2.63;;
59950;SDS011;45812;53.540;9.774;2023-12-28T10:32:35;11.40;;;2.03;;
59950;SDS011;45812;53.540;9.774;2023-12-28T10:35:00;8.77;;;2.22;;
59950;SDS011;45812;53.540;9.774;2023-12-28T10:37:26;11.85;;;2.63;;
59950;SDS011;45812;53.540;9.774;2023-12-28T10:39:53;11.05;;;2.40;;
59950;SDS011;45812;53.540;9.774;2023-12-28T10:44:55;10.60;;;2.47;;
59950;SDS011;45812;53.540;9.774;2023-12-28T10:47:38;14.13;;;2.85;;
59950;SDS011;45812;53.540;9.774;2023-12-28T10:50:08;9.95;;;2.17;;
59950;SDS011;45812;53.540;9.774;2023-12-28T10:52:36;10.38;;;2.20;;
59950;SDS011;45812;53.540;9.774;2023-12-28T10:57:48;6.40;;;1.77;;
59950;SDS011;45812;53.540;9.774;2023-12-28T11:00:23;7.88;;;1.75;;
59950;SDS011;45812;53.540;9.774;2023-12-28T11:02:55;6.40;;;2.20;;
59950;SDS011;45812;53.540;9.774;2023-12-28T11:05:24;9.20;;;2.67;;
59950;SDS011;45812;53.540;9.774;2023-12-28T11:07:51;14.52;;;2.95;;
59950;SDS011;45812;53.540;9.774;2023-12-28T11:10:22;12.55;;;2.72;;
59950;SDS011;45812;53.540;9.774;2023-12-28T11:12:49;10.00;;;3.45;;
59950;SDS011;45812;53.540;9.774;2023-12-28T11:15:17;16.73;;;2.95;;
59950;SDS011;45812;53.540;9.774;2023-12-28T11:17:42;12.93;;;2.13;;
59950;SDS011;45812;53.540;9.774;2023-12-28T11:20:08;14.32;;;2.95;;
59950;SDS011;45812;53.540;9.774;2023-12-28T11:22:34;14.93;;;3.25;;
59950;SDS011;45812;53.540;9.774;2023-12-28T11:25:01;14.93;;;2.55;;
59950;SDS011;45812;53.540;9.774;2023-12-28T11:27:32;11.88;;;2.40;;
59950;SDS011;45812;53.540;9.774;2023-12-28T11:30:05;12.90;;;2.90;;
59950;SDS011;45812;53.540;9.774;2023-12-28T11:32:41;17.10;;;2.75;;
59950;SDS011;45812;53.540;9.774;2023-12-28T11:35:13;10.43;;;2.85;;
59950;SDS011;45812;53.540;9.774;2023-12-28T11:37:46;7.53;;;2.15;;
59950;SDS011;45812;53.540;9.774;2023-12-28T11:40:16;9.32;;;1.83;;
59950;SDS011;45812;53.540;9.774;2023-12-28T11:42:47;13.05;;;3.20;;
59950;SDS011;45812;53.540;9.774;2023-12-28T11:45:16;8.20;;;2.53;;
59950;SDS011;45812;53.540;9.774;2023-12-28T11:47:43;15.23;;;3.75;;
59950;SDS011;45812;53.540;9.774;2023-12-28T11:50:08;18.38;;;2.58;;
59950;SDS011;45812;53.540;9.774;2023-12-28T11:52:34;8.50;;;2.50;;
59950;SDS011;45812;53.540;9.774;2023-12-28T11:54:59;16.38;;;2.78;;
59950;SDS011;45812;53.540;9.774;2023-12-28T11:57:25;12.77;;;2.60;;
59950;SDS011;45812;53.540;9.774;2023-12-28T11:59:57;15.70;;;2.60;;
59950;SDS011;45812;53.540;9.774;2023-12-28T12:02:26;11.73;;;2.67;;
59950;SDS011;45812;53.540;9.774;2023-12-28T12:04:53;9.77;;;2.85;;
59950;SDS011;45812;53.540;9.774;2023-12-28T12:07:19;15.68;;;2.45;;
59950;SDS011;45812;53.540;9.774;2023-12-28T12:09:44;18.95;;;2.60;;
59950;SDS011;45812;53.540;9.774;2023-12-28T12:12:10;9.23;;;2.75;;
59950;SDS011;45812;53.540;9.774;2023-12-28T12:14:35;15.00;;;2.35;;
59950;SDS011;45812;53.540;9.774;2023-12-28T12:17:01;12.20;;;2.63;;
59950;SDS011;45812;53.540;9.774;2023-12-28T12:19:27;13.38;;;4.50;;
59950;SDS011;45812;53.540;9.774;2023-12-28T12:21:53;10.95;;;2.33;;
59950;SDS011;45812;53.540;9.774;2023-12-28T12:24:19;8.50;;;2.85;;
59950;SDS011;45812;53.540;9.774;2023-12-28T12:26:45;9.77;;;2.70;;
59950;SDS011;45812;53.540;9.774;2023-12-28T12:29:11;8.18;;;2.55;;
59950;SDS011;45812;53.540;9.774;2023-12-28T12:31:37;10.30;;;3.17;;
59950;SDS011;45812;53.540;9.774;2023-12-28T12:34:04;13.50;;;2.67;;
59950;SDS011;45812;53.540;9.774;2023-12-28T12:36:30;11.55;;;2.67;;
59950;SDS011;45812;53.540;9.774;2023-12-28T12:38:55;8.98;;;2.30;;
59950;SDS011;45812;53.540;9.774;2023-12-28T12:41:21;12.93;;;2.30;;
59950;SDS011;45812;53.540;9.774;2023-12-28T12:43:46;12.57;;;2.42;;
59950;SDS011;45812;53.540;9.774;2023-12-28T12:46:12;15.35;;;2.90;;
59950;SDS011;45812;53.540;9.774;2023-12-28T12:48:38;17.73;;;3.53;;
59950;SDS011;45812;53.540;9.774;2023-12-28T12:51:05;22.20;;;3.25;;
59950;SDS011;45812;53.540;9.774;2023-12-28T12:53:34;9.27;;;2.72;;
59950;SDS011;45812;53.540;9.774;2023-12-28T12:56:02;9.55;;;2.40;;
59950;SDS011;45812;53.540;9.774;2023-12-28T12:58:28;13.23;;;2.53;;
59950;SDS011;45812;53.540;9.774;2023-12-28T13:00:55;16.60;;;2.80;;
59950;SDS011;45812;53.540;9.774;2023-12-28T13:03:21;11.38;;;3.60;;
59950;SDS011;45812;53.540;9.774;2023-12-28T13:05:47;11.80;;;2.83;;
59950;SDS011;45812;53.540;9.774;2023-12-28T13:08:12;17.48;;;3.20;;
59950;SDS011;45812;53.540;9.774;2023-12-28T13:10:37;7.80;;;2.80;;
59950;SDS011;45812;53.540;9.774;2023-12-28T13:13:06;6.20;;;2.30;;
59950;SDS011;45812;53.540;9.774;2023-12-28T13:15:31;9.20;;;2.70;;
59950;SDS011;45812;53.540;9.774;2023-12-28T13:17:57;11.03;;;2.27;;
59950;SDS011;45812;53.540;9.774;2023-12-28T13:20:22;6.90;;;2.30;;
59950;SDS011;45812;53.540;9.774;2023-12-28T13:22:47;14.47;;;2.70;;
59950;SDS011;45812;53.540;9.774;2023-12-28T13:25:12;13.60;;;2.47;;
59950;SDS011;45812;53.540;9.774;2023-12-28T13:27:37;16.30;;;2.63;;
59950;SDS011;45812;53.540;9.774;2023-12-28T13:30:03;12.20;;;2.90;;
59950;SDS011;45812;53.540;9.774;2023-12-28T13:32:28;18.63;;;3.13;;
59950;SDS011;45812;53.540;9.774;2023-12-28T13:34:54;9.73;;;2.40;;
59950;SDS011;45812;53.540;9.774;2023-12-28T13:37:20;14.25;;;2.80;;
59950;SDS011;45812;53.540;9.774;2023-12-28T13:39:45;7.82;;;2.83;;
59950;SDS011;45812;53.540;9.774;2023-12-28T13:42:12;7.45;;;2.00;;
59950;SDS011;45812;53.540;9.774;2023-12-28T13:44:37;13.55;;;2.85;;
59950;SDS011;45812;53.540;9.774;2023-12-28T13:47:02;12.38;;;2.72;;
59950;SDS011;45812;53.540;9.774;2023-12-28T13:49:28;12.93;;;2.50;;
59950;SDS011;45812;53.540;9.774;2023-12-28T13:51:54;14.43;;;3.60;;
59950;SDS011;45812;53.540;9.774;2023-12-28T13:54:20;14.82;;;2.80;;
59950;SDS011;45812;53.540;9.774;2023-12-28T13:56:46;8.80;;;2.42;;
59950;SDS011;45812;53.540;9.774;2023-12-28T13:59:11;14.90;;;3.13;;
59950;SDS011;45812;53.540;9.774;2023-12-28T14:01:36;15.27;;;3.28;;
59950;SDS011;45812;53.540;9.774;2023-12-28T14:04:02;15.43;;;2.55;;
59950;SDS011;45812;53.540;9.774;2023-12-28T14:06:28;16.60;;;3.25;;
59950;SDS011;45812;53.540;9.774;2023-12-28T14:08:53;12.88;;;3.28;;
59950;SDS011;45812;53.540;9.774;2023-12-28T14:11:18;13.40;;;3.20;;
59950;SDS011;45812;53.540;9.774;2023-12-28T14:13:44;11.07;;;3.08;;
59950;SDS011;45812;53.540;9.774;2023-12-28T14:16:09;10.60;;;2.33;;
59950;SDS011;45812;53.540;9.774;2023-12-28T14:18:34;16.83;;;3.67;;
59950;SDS011;45812;53.540;9.774;2023-12-28T14:20:59;17.63;;;3.17;;
59950;SDS011;45812;53.540;9.774;2023-12-28T14:23:25;13.52;;;3.20;;
59950;SDS011;45812;53.540;9.774;2023-12-28T14:25:50;7.05;;;1.90;;
59950;SDS011;45812;53.540;9.774;2023-12-28T14:28:19;7.35;;;2.30;;
59950;SDS011;45812;53.540;9.774;2023-12-28T14:30:45;12.13;;;3.30;;
59950;SDS011;45812;53.540;9.774;2023-12-28T14:33:11;12.02;;;2.63;;
59950;SDS011;45812;53.540;9.774;2023-12-28T14:35:36;9.10;;;2.08;;
59950;SDS011;45812;53.540;9.774;2023-12-28T14:38:04;10.13;;;3.03;;
59950;SDS011;45812;53.540;9.774;2023-12-28T14:40:30;24.27;;;4.50;;
59950;SDS011;45812;53.540;9.774;2023-12-28T14:42:55;18.58;;;4.65;;
59950;SDS011;45812;53.540;9.774;2023-12-28T14:45:21;13.77;;;2.85;;